KTTN/TTN METAR and TAF weather

Enter ICAO airport designator
Station Type Date Time Source
KTTN METAR 2019/04/20 22:53 UTC NOAA

KTTN 202253Z 17014G19KT 10SM CLR 17/09 A2976 RMK AO2 SLP069 T01720089


Station Type Date Time Source
KTTN Decoded METAR 2019/04/20 22:53 UTC NOAA

TRENTON MERCER COUNTY AIRPORT , NJ, United States (KTTN) 40-17N 074-49W 59M
Apr 20, 2019 - 06:53 PM EDT / 2019.04.20 2253 UTC
Wind: from the S (170 degrees) at 16 MPH (14 KT) gusting to 22 MPH (19 KT):0
Visibility: 10 mile(s):0
Sky conditions: clear
Temperature: 63.0 F (17.2 C)
Dew Point: 48.0 F (8.9 C)
Relative Humidity: 58%
Pressure (altimeter): 29.76 in. Hg (1007 hPa)
ob: KTTN 202253Z 17014G19KT 10SM CLR 17/09 A2976 RMK AO2 SLP069 T01720089
cycle: 23

Station Type Date Time Source
KTTN TAF 2019/04/20 19:27 UTC NOAA

TAF
AMD KTTN 201923Z 2019/2118 18012G18KT P6SM BKN060
FM202300 17009KT P6SM SCT200
FM210400 VRB04KT P6SM BKN080
FM210900 VRB03KT P6SM SCT080
FM211400 22006KT P6SM SCT080

Example: see airport list